createdAt,value
2024-03-12T00:02:12.060Z,4.63
2024-03-12T00:04:42.503Z,3.88
2024-03-12T00:07:11.174Z,2.67
2024-03-12T00:09:39.614Z,3.40
2024-03-12T00:12:08.581Z,3.78
2024-03-12T00:14:36.837Z,2.90
2024-03-12T00:17:05.096Z,4.03
2024-03-12T00:19:34.929Z,4.20
2024-03-12T00:22:04.867Z,3.65
2024-03-12T00:24:33.276Z,2.80
2024-03-12T00:27:01.600Z,3.55
2024-03-12T00:29:29.792Z,3.72
2024-03-12T00:31:59.204Z,4.45
2024-03-12T00:34:27.849Z,4.22
2024-03-12T00:36:56.298Z,2.90
2024-03-12T00:39:26.661Z,2.88
2024-03-12T00:41:55.601Z,3.45
2024-03-12T00:44:24.997Z,3.33
2024-03-12T00:46:53.274Z,3.22
2024-03-12T00:49:21.531Z,3.17
2024-03-12T00:51:51.002Z,3.22
2024-03-12T00:54:19.905Z,4.00
2024-03-12T00:56:50.985Z,3.15
2024-03-12T00:59:19.706Z,4.65
2024-03-12T01:01:50.038Z,3.65
2024-03-12T01:04:18.452Z,2.75
2024-03-12T01:06:47.015Z,2.83
2024-03-12T01:09:17.441Z,2.42
2024-03-12T01:11:47.434Z,5.50
2024-03-12T01:14:18.515Z,4.45
2024-03-12T01:16:46.820Z,3.83
2024-03-12T01:19:15.353Z,3.85
2024-03-12T01:21:43.614Z,4.10
2024-03-12T01:24:13.944Z,3.80
2024-03-12T01:26:43.237Z,3.00
2024-03-12T01:29:11.492Z,3.75
2024-03-12T01:31:42.372Z,3.67
2024-03-12T01:34:10.721Z,4.32
2024-03-12T01:36:41.305Z,2.95
2024-03-12T01:39:09.795Z,2.58
2024-03-12T01:41:43.035Z,3.25
2024-03-12T01:44:11.609Z,3.83
2024-03-12T01:46:41.655Z,3.83
2024-03-12T01:49:11.303Z,3.30
2024-03-12T01:51:39.859Z,3.25
2024-03-12T01:54:10.113Z,3.28
2024-03-12T01:56:38.437Z,2.72
2024-03-12T01:59:07.246Z,2.88
2024-03-12T02:01:35.566Z,4.93
2024-03-12T02:04:05.553Z,2.67
2024-03-12T02:06:34.143Z,3.53
2024-03-12T02:09:04.740Z,3.70
2024-03-12T02:11:33.108Z,4.38
2024-03-12T02:14:01.563Z,3.78
2024-03-12T02:16:30.163Z,3.20
2024-03-12T02:18:58.596Z,4.15
2024-03-12T02:21:28.947Z,4.97
2024-03-12T02:23:59.166Z,7.38
2024-03-12T02:26:27.479Z,4.20
2024-03-12T02:28:55.699Z,4.03
2024-03-12T02:31:24.043Z,8.80
2024-03-12T02:33:53.563Z,4.63
2024-03-12T02:36:22.651Z,3.72
2024-03-12T02:38:51.016Z,4.95
2024-03-12T02:41:23.064Z,4.55
2024-03-12T02:43:52.907Z,3.95
2024-03-12T02:46:22.573Z,4.60
2024-03-12T02:48:52.706Z,4.25
2024-03-12T02:51:21.031Z,4.38
2024-03-12T02:53:49.274Z,4.25
2024-03-12T02:56:17.801Z,4.38
2024-03-12T02:58:48.444Z,3.08
2024-03-12T03:01:17.162Z,3.95
2024-03-12T03:03:45.573Z,3.60
2024-03-12T03:06:13.789Z,2.28
2024-03-12T03:08:42.055Z,4.32
2024-03-12T03:11:10.551Z,3.28
2024-03-12T03:13:38.775Z,2.75
2024-03-12T03:16:09.574Z,4.15
2024-03-12T03:18:38.405Z,2.80
2024-03-12T03:21:08.526Z,3.25
2024-03-12T03:23:40.641Z,2.85
2024-03-12T03:26:08.982Z,3.50
2024-03-12T03:28:37.298Z,3.03
2024-03-12T03:31:07.552Z,3.97
2024-03-12T03:33:35.908Z,3.45
2024-03-12T03:36:05.196Z,3.03
2024-03-12T03:38:34.986Z,2.70
2024-03-12T03:41:03.331Z,3.10
2024-03-12T03:43:32.316Z,4.13
2024-03-12T03:46:01.056Z,4.20
2024-03-12T03:48:30.988Z,2.65
2024-03-12T03:50:59.336Z,2.95
2024-03-12T03:53:28.272Z,3.03
2024-03-12T03:55:56.747Z,3.28
2024-03-12T03:58:25.029Z,5.38
2024-03-12T04:00:53.582Z,4.63
2024-03-12T04:03:21.934Z,3.60
2024-03-12T04:05:53.399Z,3.25
2024-03-12T04:08:21.818Z,2.28
2024-03-12T04:10:50.215Z,3.20
2024-03-12T04:13:18.756Z,2.70
2024-03-12T04:15:49.070Z,3.15
2024-03-12T04:18:20.072Z,2.00
2024-03-12T04:20:48.920Z,2.88
2024-03-12T04:23:18.576Z,2.22
2024-03-12T04:25:46.818Z,5.85
2024-03-12T04:28:17.475Z,2.97
2024-03-12T04:30:45.973Z,4.65
2024-03-12T04:33:14.299Z,2.50
2024-03-12T04:35:43.357Z,4.10
2024-03-12T04:38:12.626Z,3.55
2024-03-12T04:40:43.658Z,2.88
2024-03-12T04:43:13.408Z,3.75
2024-03-12T04:45:42.326Z,2.92
2024-03-12T04:48:11.297Z,5.88
2024-03-12T04:50:39.758Z,3.15
2024-03-12T04:53:08.239Z,3.40
2024-03-12T04:55:38.269Z,5.72
2024-03-12T04:58:08.270Z,3.47
2024-03-12T05:00:36.694Z,3.10
2024-03-12T05:03:05.803Z,3.58
2024-03-12T05:05:34.041Z,2.80
2024-03-12T05:08:02.282Z,3.70
2024-03-12T05:10:31.267Z,5.05
2024-03-12T05:13:01.431Z,3.03
2024-03-12T05:15:31.580Z,2.92
2024-03-12T05:17:59.917Z,3.13
2024-03-12T05:20:30.704Z,3.15
2024-03-12T05:22:59.636Z,3.53
2024-03-12T05:25:40.520Z,4.15
2024-03-12T05:28:10.410Z,3.75
2024-03-12T05:30:42.121Z,4.18
2024-03-12T05:33:15.712Z,3.25
2024-03-12T05:35:51.057Z,2.78
2024-03-12T05:38:33.789Z,3.47
2024-03-12T05:41:16.462Z,3.25
2024-03-12T05:43:58.732Z,3.20
2024-03-12T05:46:46.947Z,3.58
2024-03-12T05:49:16.583Z,4.60
2024-03-12T05:51:45.503Z,5.82
2024-03-12T05:54:14.164Z,6.43
2024-03-12T05:56:42.453Z,4.82
2024-03-12T05:59:10.739Z,6.18
2024-03-12T06:01:40.518Z,5.22
2024-03-12T06:04:08.862Z,3.78
2024-03-12T06:06:37.647Z,3.58
2024-03-12T06:09:06.611Z,3.97
2024-03-12T06:11:34.865Z,5.45
2024-03-12T06:14:07.112Z,2.75
2024-03-12T06:16:35.475Z,4.35
2024-03-12T06:19:05.169Z,3.08
2024-03-12T06:21:34.588Z,4.20
2024-03-12T06:24:03.038Z,4.05
2024-03-12T06:26:32.065Z,6.10
2024-03-12T06:29:00.789Z,3.20
2024-03-12T06:31:30.466Z,4.82
2024-03-12T06:33:58.807Z,4.07
2024-03-12T06:36:28.587Z,2.92
2024-03-12T06:38:56.856Z,2.47
2024-03-12T06:41:25.776Z,4.90
2024-03-12T06:43:55.126Z,6.15
2024-03-12T06:46:23.454Z,8.45
2024-03-12T06:48:54.070Z,8.52
2024-03-12T06:51:22.389Z,4.88
2024-03-12T06:53:51.996Z,6.70
2024-03-12T06:56:23.087Z,4.88
2024-03-12T06:58:51.618Z,3.85
2024-03-12T07:01:20.490Z,5.45
2024-03-12T07:03:52.993Z,4.85
2024-03-12T07:06:22.931Z,6.80
2024-03-12T07:08:56.627Z,7.05
2024-03-12T07:11:27.143Z,4.60
2024-03-12T07:14:03.156Z,3.72
2024-03-12T07:16:32.042Z,4.13
2024-03-12T07:19:01.047Z,5.20
2024-03-12T07:21:29.453Z,3.72
2024-03-12T07:23:59.073Z,5.95
2024-03-12T07:26:28.186Z,3.63
2024-03-12T07:28:57.738Z,4.40
2024-03-12T07:31:26.740Z,6.80
2024-03-12T07:33:56.584Z,7.10
2024-03-12T07:36:25.408Z,5.28
2024-03-12T07:38:54.256Z,6.32
2024-03-12T07:41:24.557Z,3.38
2024-03-12T07:43:52.794Z,4.88
2024-03-12T07:46:21.496Z,5.50
2024-03-12T07:48:49.986Z,3.20
2024-03-12T07:51:19.556Z,3.55
2024-03-12T07:53:47.772Z,4.10
2024-03-12T07:56:16.442Z,3.38
2024-03-12T07:58:47.598Z,5.00
2024-03-12T08:01:16.139Z,4.78
2024-03-12T08:03:44.578Z,4.78
2024-03-12T08:06:12.849Z,5.45
2024-03-12T08:08:43.006Z,4.68
2024-03-12T08:11:11.460Z,42.67
2024-03-12T08:13:40.043Z,25.23
2024-03-12T08:16:10.117Z,15.98
2024-03-12T08:18:38.459Z,19.27
2024-03-12T08:21:07.204Z,22.60
2024-03-12T08:23:35.468Z,18.95
2024-03-12T08:26:03.900Z,14.93
2024-03-12T08:28:33.309Z,13.68
2024-03-12T08:31:08.009Z,14.40
2024-03-12T08:33:43.093Z,12.30
2024-03-12T08:36:12.176Z,6.85
2024-03-12T08:38:40.407Z,13.05
2024-03-12T08:41:10.360Z,7.40
2024-03-12T08:43:38.994Z,6.53
2024-03-12T08:46:08.158Z,6.90
2024-03-12T08:48:36.783Z,6.28
2024-03-12T08:51:06.887Z,5.25
2024-03-12T08:53:35.573Z,5.90
2024-03-12T08:56:04.977Z,5.50
2024-03-12T08:58:33.672Z,6.07
2024-03-12T09:01:02.135Z,6.97
2024-03-12T09:03:30.678Z,4.82
2024-03-12T09:05:59.108Z,3.90
2024-03-12T09:08:30.378Z,5.95
2024-03-12T09:10:58.945Z,4.72
2024-03-12T09:13:27.437Z,4.07
2024-03-12T09:15:56.567Z,3.13
2024-03-12T09:18:27.566Z,3.85
2024-03-12T09:20:57.056Z,3.20
2024-03-12T09:23:26.467Z,6.00
2024-03-12T09:25:56.297Z,3.63
2024-03-12T09:28:24.531Z,3.45
2024-03-12T09:30:52.801Z,5.13
2024-03-12T09:33:21.041Z,3.47
2024-03-12T09:35:50.122Z,7.10
2024-03-12T09:38:18.337Z,4.15
2024-03-12T09:40:51.735Z,4.97
2024-03-12T09:43:25.367Z,3.45
2024-03-12T09:45:53.877Z,4.50
2024-03-12T09:48:23.294Z,4.68
2024-03-12T09:50:52.012Z,4.45
2024-03-12T09:53:22.557Z,5.20
2024-03-12T09:55:51.366Z,4.70
2024-03-12T09:58:21.263Z,4.75
2024-03-12T10:00:49.653Z,6.40
2024-03-12T10:03:20.855Z,5.18
2024-03-12T10:05:49.101Z,5.30
2024-03-12T10:08:19.252Z,4.95
2024-03-12T10:10:49.321Z,4.30
2024-03-12T10:13:19.045Z,4.80
2024-03-12T10:15:54.998Z,4.50
2024-03-12T10:18:23.541Z,4.00
2024-03-12T10:20:55.506Z,2.92
2024-03-12T10:23:27.094Z,3.50
2024-03-12T10:28:27.775Z,3.33
2024-03-12T10:31:10.374Z,5.05
2024-03-12T10:33:41.858Z,5.72
2024-03-12T10:36:12.306Z,5.03
2024-03-12T10:38:42.230Z,3.55
2024-03-12T10:41:19.721Z,1.73
2024-03-12T10:43:51.051Z,2.25
2024-03-12T10:46:22.452Z,3.65
2024-03-12T10:51:21.100Z,1.98
2024-03-12T10:53:51.514Z,3.20
2024-03-12T10:56:20.205Z,2.25
2024-03-12T10:58:49.925Z,2.63
2024-03-12T11:01:21.025Z,1.92
2024-03-12T11:03:51.143Z,1.30
2024-03-12T11:06:23.832Z,1.63
2024-03-12T11:08:52.388Z,1.40
2024-03-12T11:11:20.781Z,1.77
2024-03-12T11:13:51.846Z,3.05
2024-03-12T11:16:22.466Z,1.55
2024-03-12T11:18:50.878Z,3.13
2024-03-12T11:21:24.797Z,2.25
2024-03-12T11:23:57.679Z,4.78
2024-03-12T11:29:01.658Z,4.05
2024-03-12T11:31:38.864Z,4.40
2024-03-12T11:34:07.370Z,4.97
2024-03-12T11:36:44.383Z,4.03
2024-03-12T11:39:16.550Z,5.47
2024-03-12T11:42:13.426Z,4.35
2024-03-12T11:44:45.103Z,4.30
2024-03-12T11:47:31.158Z,4.50
2024-03-12T11:50:03.408Z,6.05
2024-03-12T11:52:34.758Z,4.30
2024-03-12T11:55:05.491Z,3.05
2024-03-12T11:57:35.810Z,4.40
2024-03-12T12:00:11.426Z,6.85
2024-03-12T12:02:46.335Z,18.27
2024-03-12T12:05:14.996Z,17.23
2024-03-12T12:07:43.254Z,5.97
2024-03-12T12:10:13.156Z,2.70
2024-03-12T12:12:41.842Z,4.15
2024-03-12T12:15:12.483Z,1.67
2024-03-12T12:17:41.368Z,2.15
2024-03-12T12:20:17.238Z,2.00
2024-03-12T12:22:48.167Z,4.30
2024-03-12T12:25:19.999Z,3.28
2024-03-12T12:27:49.022Z,3.10
2024-03-12T12:30:22.053Z,17.13
2024-03-12T12:32:53.131Z,12.57
2024-03-12T12:35:24.283Z,4.70
2024-03-12T12:37:53.192Z,3.53
2024-03-12T12:40:23.022Z,3.70
2024-03-12T12:42:54.455Z,2.47
2024-03-12T12:45:22.883Z,2.22
2024-03-12T12:47:51.579Z,2.25
2024-03-12T12:50:31.966Z,2.47
2024-03-12T12:53:02.059Z,2.80
2024-03-12T12:55:31.113Z,2.30
2024-03-12T12:58:00.997Z,2.97
2024-03-12T13:00:29.413Z,3.28
2024-03-12T13:03:13.295Z,3.28
2024-03-12T13:05:42.934Z,6.07
2024-03-12T13:08:24.870Z,2.50
2024-03-12T13:11:05.763Z,2.63
2024-03-12T13:13:35.270Z,2.70
2024-03-12T13:16:15.778Z,2.70
2024-03-12T13:18:46.362Z,3.72
2024-03-12T13:21:17.284Z,3.23
2024-03-12T13:23:46.709Z,3.13
2024-03-12T13:26:15.442Z,2.67
2024-03-12T13:28:44.458Z,3.03
2024-03-12T13:31:12.918Z,2.80
2024-03-12T13:33:41.684Z,2.88
2024-03-12T13:36:11.929Z,2.45
2024-03-12T13:38:42.439Z,4.75
2024-03-12T13:41:11.095Z,2.30
2024-03-12T13:43:39.860Z,2.80
2024-03-12T13:46:08.582Z,3.45
2024-03-12T13:48:37.964Z,3.22
2024-03-12T13:51:08.749Z,3.35
2024-03-12T13:53:38.982Z,5.38
2024-03-12T13:56:11.329Z,4.30
2024-03-12T13:58:42.720Z,3.63
2024-03-12T14:01:14.343Z,4.07
2024-03-12T14:03:43.556Z,4.32
2024-03-12T14:06:12.763Z,5.00
2024-03-12T14:08:41.172Z,3.65
2024-03-12T14:11:11.990Z,4.68
2024-03-12T14:13:40.714Z,3.53
2024-03-12T14:16:10.925Z,4.15
2024-03-12T14:18:39.898Z,3.72
2024-03-12T14:21:08.287Z,5.03
2024-03-12T14:23:36.616Z,4.07
2024-03-12T14:26:05.400Z,6.88
2024-03-12T14:28:35.068Z,4.47
2024-03-12T14:31:03.996Z,3.53
2024-03-12T14:33:33.219Z,3.72
2024-03-12T14:36:01.520Z,4.35
2024-03-12T14:38:29.731Z,3.63
2024-03-12T14:40:58.413Z,2.83
2024-03-12T14:43:27.842Z,3.47
2024-03-12T14:45:57.603Z,4.18
2024-03-12T14:48:25.931Z,3.08
2024-03-12T14:50:54.533Z,3.03
2024-03-12T14:53:23.135Z,2.72
2024-03-12T14:55:51.373Z,3.40
2024-03-12T14:58:19.922Z,3.90
2024-03-12T15:00:48.305Z,5.18
2024-03-12T15:03:20.554Z,4.05
2024-03-12T15:05:49.447Z,4.20
2024-03-12T15:08:17.695Z,4.05
2024-03-12T15:10:46.096Z,4.40
2024-03-12T15:13:15.313Z,4.47
2024-03-12T15:15:44.068Z,3.60
2024-03-12T15:18:14.226Z,4.05
2024-03-12T15:20:47.432Z,4.70
2024-03-12T15:23:15.752Z,5.55
2024-03-12T15:25:44.044Z,8.63
2024-03-12T15:28:12.323Z,6.13
2024-03-12T15:30:43.282Z,4.57
2024-03-12T15:35:40.753Z,4.95
2024-03-12T15:38:10.356Z,4.57
2024-03-12T15:40:39.038Z,5.80
2024-03-12T15:43:10.385Z,4.68
2024-03-12T15:48:09.112Z,5.80
2024-03-12T15:50:39.448Z,4.85
2024-03-12T15:53:12.874Z,4.82
2024-03-12T15:55:41.707Z,4.32
2024-03-12T15:58:12.237Z,5.60
2024-03-12T16:00:43.438Z,5.20
2024-03-12T16:03:12.380Z,6.18
2024-03-12T16:05:42.676Z,5.88
2024-03-12T16:08:12.451Z,5.05
2024-03-12T16:10:41.184Z,5.47
2024-03-12T16:13:11.589Z,6.03
2024-03-12T16:15:39.921Z,4.60
2024-03-12T16:18:08.294Z,4.38
2024-03-12T16:20:37.993Z,5.70
2024-03-12T16:23:06.525Z,4.88
2024-03-12T16:25:36.267Z,6.18
2024-03-12T16:28:05.109Z,6.25
2024-03-12T16:30:33.483Z,6.10
2024-03-12T16:33:01.737Z,7.47
2024-03-12T16:35:30.024Z,6.70
2024-03-12T16:37:58.836Z,5.93
2024-03-12T16:40:28.301Z,6.40
2024-03-12T16:42:58.636Z,7.60
2024-03-12T16:45:26.967Z,7.95
2024-03-12T16:47:55.211Z,7.97
2024-03-12T16:50:23.565Z,7.53
2024-03-12T16:52:51.838Z,8.30
2024-03-12T16:55:20.977Z,9.68
2024-03-12T16:57:49.884Z,8.32
2024-03-12T17:00:20.277Z,7.63
2024-03-12T17:02:49.226Z,6.25
2024-03-12T17:05:23.249Z,7.10
2024-03-12T17:07:53.270Z,8.27
2024-03-12T17:10:23.771Z,6.45
2024-03-12T17:12:52.972Z,8.43
2024-03-12T17:15:24.489Z,8.05
2024-03-12T17:20:20.978Z,8.30
2024-03-12T17:22:49.918Z,10.60
2024-03-12T17:25:20.130Z,9.63
2024-03-12T17:27:50.459Z,8.02
2024-03-12T17:30:21.202Z,9.13
2024-03-12T17:32:51.455Z,10.33
2024-03-12T17:35:20.341Z,10.68
2024-03-12T17:37:52.759Z,9.18
2024-03-12T17:40:23.534Z,10.85
2024-03-12T17:42:52.427Z,10.15
2024-03-12T17:45:21.553Z,11.98
2024-03-12T17:47:52.491Z,9.52
2024-03-12T17:50:23.902Z,8.18
2024-03-12T17:52:53.781Z,11.75
2024-03-12T17:55:23.659Z,11.93
2024-03-12T17:57:53.987Z,9.20
2024-03-12T18:00:23.051Z,9.93
2024-03-12T18:02:53.143Z,8.77
2024-03-12T18:05:23.140Z,7.45
2024-03-12T18:07:53.200Z,6.70
2024-03-12T18:10:25.179Z,6.57
2024-03-12T18:12:54.690Z,5.95
2024-03-12T18:15:24.660Z,7.63
2024-03-12T18:17:54.669Z,7.88
2024-03-12T18:20:29.115Z,9.05
2024-03-12T18:22:57.405Z,8.60
2024-03-12T18:25:25.937Z,5.57
2024-03-12T18:27:57.211Z,9.88
2024-03-12T18:30:26.070Z,7.10
2024-03-12T18:32:56.142Z,6.22
2024-03-12T18:35:25.185Z,7.28
2024-03-12T18:37:53.514Z,6.25
2024-03-12T18:40:23.510Z,6.30
2024-03-12T18:42:52.531Z,7.78
2024-03-12T18:45:23.855Z,6.07
2024-03-12T18:47:54.531Z,7.32
2024-03-12T18:50:25.805Z,6.95
2024-03-12T18:52:54.949Z,6.45
2024-03-12T18:55:24.348Z,6.75
2024-03-12T18:57:53.481Z,7.10
2024-03-12T19:00:24.952Z,6.55
2024-03-12T19:02:55.101Z,5.97
2024-03-12T19:05:25.819Z,6.60
2024-03-12T19:07:56.404Z,6.22
2024-03-12T19:10:30.720Z,6.43
2024-03-12T19:13:00.431Z,7.03
2024-03-12T19:15:37.202Z,8.43
2024-03-12T19:18:14.263Z,6.43
2024-03-12T19:20:45.938Z,6.82
2024-03-12T19:23:14.808Z,7.95
2024-03-12T19:25:43.043Z,6.93
2024-03-12T19:28:11.921Z,9.40
2024-03-12T19:30:40.798Z,6.05
2024-03-12T19:33:12.839Z,5.47
2024-03-12T19:35:41.764Z,7.28
2024-03-12T19:38:12.179Z,5.75
2024-03-12T19:40:42.251Z,7.45
2024-03-12T19:43:11.542Z,5.68
2024-03-12T19:45:42.158Z,7.00
2024-03-12T19:48:13.731Z,6.97
2024-03-12T19:53:11.843Z,6.28
2024-03-12T19:55:43.585Z,8.57
2024-03-12T19:58:12.077Z,6.90
2024-03-12T20:00:41.566Z,7.45
2024-03-12T20:03:13.116Z,7.93
2024-03-12T20:05:42.581Z,7.70
2024-03-12T20:08:13.349Z,6.82
2024-03-12T20:10:41.964Z,6.40
2024-03-12T20:13:10.728Z,9.00
2024-03-12T20:15:44.534Z,8.32
2024-03-12T20:18:13.480Z,6.70
2024-03-12T20:20:42.418Z,8.65
2024-03-12T20:23:12.380Z,8.75
2024-03-12T20:25:41.153Z,6.38
2024-03-12T20:28:11.175Z,7.95
2024-03-12T20:30:40.988Z,6.20
2024-03-12T20:33:12.981Z,7.25
2024-03-12T20:35:44.132Z,9.15
2024-03-12T20:38:15.494Z,8.32
2024-03-12T20:40:44.239Z,7.78
2024-03-12T20:43:13.025Z,8.85
2024-03-12T20:45:42.228Z,7.20
2024-03-12T20:48:11.510Z,7.00
2024-03-12T20:50:40.988Z,7.97
2024-03-12T20:53:09.470Z,7.03
2024-03-12T20:55:39.204Z,5.43
2024-03-12T20:58:07.511Z,8.23
2024-03-12T21:00:36.433Z,5.90
2024-03-12T21:03:10.368Z,6.43
2024-03-12T21:05:40.709Z,7.18
2024-03-12T21:08:09.244Z,6.78
2024-03-12T21:10:44.222Z,6.82
2024-03-12T21:13:13.628Z,9.15
2024-03-12T21:15:42.138Z,7.50
2024-03-12T21:18:10.938Z,7.20
2024-03-12T21:20:39.356Z,8.98
2024-03-12T21:23:09.591Z,6.63
2024-03-12T21:25:39.672Z,6.75
2024-03-12T21:28:11.130Z,8.27
2024-03-12T21:30:42.545Z,7.68
2024-03-12T21:33:11.853Z,9.85
2024-03-12T21:35:42.091Z,8.38
2024-03-12T21:38:12.994Z,6.40
2024-03-12T21:40:42.682Z,10.48
2024-03-12T21:43:11.022Z,8.30
2024-03-12T21:45:40.710Z,7.50
2024-03-12T21:48:09.506Z,7.80
2024-03-12T21:50:38.179Z,6.35
2024-03-12T21:53:09.287Z,7.38
2024-03-12T21:55:40.211Z,7.18
2024-03-12T21:58:10.417Z,7.50
2024-03-12T22:00:38.798Z,5.85
2024-03-12T22:03:08.616Z,8.40
2024-03-12T22:05:37.011Z,7.25
2024-03-12T22:08:06.062Z,7.15
2024-03-12T22:10:35.397Z,7.97
2024-03-12T22:13:03.837Z,8.18
2024-03-12T22:15:33.542Z,9.98
2024-03-12T22:18:02.131Z,9.43
2024-03-12T22:20:30.470Z,10.10
2024-03-12T22:22:59.255Z,9.60
2024-03-12T22:25:28.088Z,6.53
2024-03-12T22:27:57.368Z,8.77
2024-03-12T22:30:25.614Z,10.43
2024-03-12T22:32:55.286Z,8.68
2024-03-12T22:35:23.658Z,9.95
2024-03-12T22:37:52.397Z,11.88
2024-03-12T22:40:21.359Z,10.57
2024-03-12T22:42:50.282Z,9.88
2024-03-12T22:45:20.008Z,9.80
2024-03-12T22:47:48.589Z,9.50
2024-03-12T22:50:19.132Z,9.23
2024-03-12T22:52:49.375Z,9.52
2024-03-12T22:55:18.336Z,9.80
2024-03-12T22:57:47.726Z,9.68
2024-03-12T23:00:33.985Z,9.55
2024-03-12T23:03:04.291Z,9.18
2024-03-12T23:05:35.236Z,7.88
2024-03-12T23:08:06.570Z,8.13
2024-03-12T23:10:36.722Z,8.25
2024-03-12T23:13:05.685Z,7.57
2024-03-12T23:15:36.158Z,7.88
2024-03-12T23:18:05.191Z,7.83
2024-03-12T23:20:35.482Z,8.23
2024-03-12T23:23:04.007Z,7.80
2024-03-12T23:25:32.268Z,7.68
2024-03-12T23:28:00.829Z,8.38
2024-03-12T23:30:29.419Z,7.97
2024-03-12T23:32:59.252Z,7.72
2024-03-12T23:35:28.862Z,9.23
2024-03-12T23:37:59.232Z,9.63
2024-03-12T23:40:29.077Z,10.00
2024-03-12T23:42:57.649Z,7.53
2024-03-12T23:45:27.788Z,7.72
2024-03-12T23:47:58.524Z,9.00
2024-03-12T23:50:27.130Z,7.28
2024-03-12T23:52:55.936Z,6.78
2024-03-12T23:55:26.588Z,7.53
2024-03-12T23:57:55.508Z,8.30
